Time;durP1;ratioP1;P1;durP2;ratioP2;P2;SDS_P1;SDS_P2;PMS_P1;PMS_P2;Temp;Humidity;BMP_temperature;BMP_pressure;BME280_temperature;BME280_humidity;BME280_pressure;Samples;Min_cycle;Max_cycle;Signal;HPM_P1;HPM_P2
2023/12/20 00:01:29;;;;;;;8.63;6.00;;;;;;;1.58;87.20;95198.84;4953211;28;20230;-72
2023/12/20 00:03:54;;;;;;;7.67;4.80;;;;;;;1.58;86.94;95196.25;4953646;28;20190;-71
2023/12/20 00:06:20;;;;;;;2.13;2.10;;;;;;;1.55;87.01;95194.78;4954139;28;20593;-71
2023/12/20 00:08:45;;;;;;;20.97;18.73;;;;;;;1.45;86.96;95173.28;4967614;28;20185;-72
2023/12/20 00:11:11;;;;;;;2.57;2.40;;;;;;;1.52;87.69;95179.50;4968876;28;20178;-71
2023/12/20 00:13:36;;;;;;;3.30;2.80;;;;;;;1.53;87.46;95181.16;4953923;28;20709;-71
2023/12/20 00:16:02;;;;;;;19.10;17.27;;;;;;;1.49;87.44;95177.22;4953868;28;20185;-72
2023/12/20 00:18:27;;;;;;;1.97;1.93;;;;;;;1.49;87.01;95177.22;4953715;28;20178;-71
2023/12/20 00:20:53;;;;;;;2.83;2.63;;;;;;;1.46;87.38;95170.56;4952448;28;20186;-72
2023/12/20 00:23:18;;;;;;;5.73;5.37;;;;;;;1.49;87.30;95165.06;4953924;28;20182;-72
2023/12/20 00:25:43;;;;;;;1.57;1.53;;;;;;;1.50;87.85;95164.09;4953662;28;21118;-72
2023/12/20 00:28:09;;;;;;;3.70;2.50;;;;;;;1.52;87.12;95157.00;4970391;28;20182;-72
2023/12/20 00:30:34;;;;;;;7.47;5.53;;;;;;;1.51;86.73;95157.13;4972907;28;20676;-72
2023/12/20 00:33:00;;;;;;;2.10;2.00;;;;;;;1.45;86.94;95153.38;4972828;28;20177;-72
2023/12/20 00:35:25;;;;;;;8.30;4.63;;;;;;;1.46;86.60;95151.59;4972772;28;20181;-71
2023/12/20 00:37:51;;;;;;;10.70;9.67;;;;;;;1.47;86.91;95142.84;4953442;29;20539;-71
2023/12/20 00:40:16;;;;;;;2.50;2.40;;;;;;;1.41;86.57;95146.00;4957931;28;20184;-71
2023/12/20 00:42:42;;;;;;;1.23;1.23;;;;;;;1.37;86.65;95136.91;4971228;28;20170;-71
2023/12/20 00:45:08;;;;;;;53.93;10.30;;;;;;;1.40;86.68;95145.19;4972490;28;20650;-71
2023/12/20 00:47:33;;;;;;;4.53;4.33;;;;;;;1.41;86.37;95143.41;4972376;28;20313;-71
2023/12/20 00:49:59;;;;;;;9.83;9.07;;;;;;;1.41;86.82;95140.81;4972448;28;20186;-71
2023/12/20 00:52:25;;;;;;;3.77;3.60;;;;;;;1.41;87.30;95135.63;4972297;28;20177;-71
2023/12/20 00:54:51;;;;;;;3.40;3.20;;;;;;;1.37;87.03;95132.53;4972363;28;20181;-71
2023/12/20 00:57:16;;;;;;;2.30;2.20;;;;;;;1.19;86.64;95110.16;4972445;28;20178;-71
2023/12/20 00:59:42;;;;;;;2.23;2.13;;;;;;;1.33;86.85;95127.78;4972580;28;20206;-71
2023/12/20 01:02:08;;;;;;;2.53;2.43;;;;;;;1.23;87.11;95111.47;4972302;28;20220;-71
2023/12/20 01:04:34;;;;;;;5.90;4.43;;;;;;;1.29;86.35;95127.28;4972228;28;20225;-71
2023/12/20 01:06:59;;;;;;;6.00;5.60;;;;;;;1.32;87.42;95119.19;4972209;28;20876;-71
2023/12/20 01:09:26;;;;;;;14.53;8.83;;;;;;;1.34;87.53;95116.44;4972115;28;20174;-71
2023/12/20 01:11:53;;;;;;;2.90;2.77;;;;;;;1.32;87.73;95113.19;4972194;28;20170;-71
2023/12/20 01:14:18;;;;;;;1.73;1.70;;;;;;;1.31;87.60;95108.97;4971283;28;20257;-71
2023/12/20 01:16:44;;;;;;;2.70;2.60;;;;;;;1.32;87.31;95114.00;4971723;28;20729;-71
2023/12/20 01:19:09;;;;;;;0.60;0.60;;;;;;;1.29;87.19;95108.31;4970549;28;20664;-71
2023/12/20 01:21:35;;;;;;;9.07;8.13;;;;;;;1.27;87.39;95108.47;4952499;28;20323;-71
2023/12/20 01:24:01;;;;;;;9.37;8.60;;;;;;;1.24;87.66;95107.94;4952571;28;20193;-71
2023/12/20 01:26:26;;;;;;;3.47;3.17;;;;;;;1.11;87.32;95078.00;4952637;28;20621;-71
2023/12/20 01:28:51;;;;;;;6.60;5.57;;;;;;;1.14;86.68;95084.66;4952423;28;20201;-71
2023/12/20 01:31:17;;;;;;;41.17;37.93;;;;;;;1.22;87.18;95091.69;4952495;28;20186;-71
2023/12/20 01:33:43;;;;;;;1.30;1.30;;;;;;;1.21;87.37;95084.91;4959921;28;20239;-71
2023/12/20 01:36:08;;;;;;;14.63;10.30;;;;;;;1.14;86.87;95077.69;4971702;28;20193;-71
2023/12/20 01:38:34;;;;;;;1.03;1.03;;;;;;;1.18;87.26;95082.59;4957125;28;20242;-71
2023/12/20 01:41:00;;;;;;;36.47;24.73;;;;;;;1.22;87.12;95079.56;4952492;28;20253;-71
2023/12/20 01:43:25;;;;;;;12.07;11.13;;;;;;;1.18;86.84;95065.28;4952209;28;20210;-71
2023/12/20 01:45:51;;;;;;;1.33;1.33;;;;;;;1.22;85.89;95068.38;4952139;28;20285;-72
2023/12/20 01:48:19;;;;;;;1.07;1.07;;;;;;;1.18;86.09;95065.28;4952092;28;20246;-71
2023/12/20 01:50:45;;;;;;;1.33;1.33;;;;;;;1.13;86.08;95057.91;4952149;28;20175;-71
2023/12/20 01:53:12;;;;;;;5.10;4.80;;;;;;;1.10;85.55;95049.66;4952004;28;20611;-71
2023/12/20 01:55:40;;;;;;;5.57;5.30;;;;;;;1.12;86.62;95052.91;4952013;28;20642;-72
2023/12/20 01:58:06;;;;;;;0.90;0.90;;;;;;;1.10;86.20;95058.25;4952019;28;20213;-72
2023/12/20 02:00:33;;;;;;;1.00;1.00;;;;;;;1.09;87.17;95048.81;4953276;28;20546;-72
2023/12/20 02:03:02;;;;;;;16.40;9.83;;;;;;;1.12;86.36;95055.50;4971144;28;20166;-72
2023/12/20 02:05:28;;;;;;;13.90;12.80;;;;;;;0.97;86.73;95050.00;4965139;28;20249;-71
2023/12/20 02:07:54;;;;;;;23.53;21.93;;;;;;;0.86;87.19;95032.09;4951768;28;20193;-71
2023/12/20 02:10:20;;;;;;;2.93;2.83;;;;;;;0.95;87.01;95051.13;4951835;28;20217;-71
2023/12/20 02:12:45;;;;;;;4.00;3.77;;;;;;;0.94;86.81;95042.53;4951627;28;20261;-71
2023/12/20 02:15:11;;;;;;;0.60;0.60;;;;;;;0.96;87.20;95035.41;4951634;28;20257;-71
2023/12/20 02:17:38;;;;;;;5.13;4.73;;;;;;;0.98;87.34;95040.44;4966884;28;20178;-71
2023/12/20 02:20:05;;;;;;;8.27;7.60;;;;;;;0.99;86.78;95029.94;4969412;28;20184;-71
2023/12/20 02:22:31;;;;;;;2.60;2.50;;;;;;;0.95;86.55;95028.59;4963517;28;20178;-71
2023/12/20 02:24:56;;;;;;;3.40;2.40;;;;;;;1.03;86.90;95028.69;4951444;28;20261;-71
2023/12/20 02:27:23;;;;;;;0.73;0.73;;;;;;;1.08;86.78;95026.47;4951529;28;20178;-71
2023/12/20 02:29:50;;;;;;;4.63;4.33;;;;;;;1.08;86.20;95026.47;4951425;28;20265;-71
2023/12/20 02:32:17;;;;;;;2.67;2.57;;;;;;;1.11;86.49;95017.59;4951598;28;20672;-71
2023/12/20 02:34:43;;;;;;;6.37;5.87;;;;;;;1.08;86.48;95021.28;4951433;28;20171;-71
2023/12/20 02:37:08;;;;;;;0.90;0.90;;;;;;;0.98;87.22;95004.16;4951465;28;20200;-71
2023/12/20 02:39:34;;;;;;;3.33;3.23;;;;;;;1.04;86.72;95008.75;4951616;28;20677;-71
2023/12/20 02:41:59;;;;;;;1.10;1.10;;;;;;;1.06;86.75;94999.88;4951284;28;20206;-71
2023/12/20 02:44:25;;;;;;;0.63;0.63;;;;;;;1.02;87.06;95008.09;4952471;28;20270;-71
2023/12/20 02:46:50;;;;;;;1.00;1.00;;;;;;;0.95;86.43;94988.94;4952171;28;20193;-71
2023/12/20 02:49:16;;;;;;;13.20;12.37;;;;;;;1.02;86.69;95008.94;4951177;28;20233;-71
2023/12/20 02:51:41;;;;;;;5.10;3.77;;;;;;;1.01;86.73;95004.69;4951570;28;20218;-71
2023/12/20 02:54:07;;;;;;;0.60;0.60;;;;;;;0.97;86.94;95002.53;4951072;28;20178;-71
2023/12/20 02:56:33;;;;;;;25.47;6.40;;;;;;;0.91;86.65;94993.59;4951212;28;20558;-71
2023/12/20 02:58:58;;;;;;;15.77;5.13;;;;;;;0.97;87.50;95005.13;4951169;28;20185;-71
2023/12/20 03:01:24;;;;;;;5.30;4.87;;;;;;;0.98;87.64;95012.75;4951194;28;20178;-71
2023/12/20 03:03:50;;;;;;;3.70;3.43;;;;;;;1.04;87.68;95006.16;4951118;28;20233;-71
2023/12/20 03:06:19;;;;;;;5.20;4.80;;;;;;;0.99;88.22;95001.44;4950872;28;20206;-71
2023/12/20 03:08:45;;;;;;;4.27;3.63;;;;;;;0.97;87.50;95002.53;4951173;28;20183;-71
2023/12/20 03:11:10;;;;;;;1.17;1.17;;;;;;;0.85;87.44;94978.66;4951084;28;20178;-71
2023/12/20 03:13:36;;;;;;;2.53;2.43;;;;;;;0.84;87.04;94981.38;4951097;28;20174;-71
2023/12/20 03:16:01;;;;;;;2.10;2.00;;;;;;;0.66;86.77;94956.28;4951074;28;20205;-71
2023/12/20 03:18:28;;;;;;;0.73;0.73;;;;;;;0.85;87.43;94980.44;4951023;28;20174;-71
2023/12/20 03:20:53;;;;;;;1.50;1.50;;;;;;;0.87;87.92;94987.06;4950628;28;20170;-71
2023/12/20 03:23:19;;;;;;;5.87;5.47;;;;;;;0.90;87.10;94988.56;4949540;28;20182;-71
2023/12/20 03:25:44;;;;;;;0.70;0.70;;;;;;;0.89;87.17;94997.28;4950409;28;20206;-71
2023/12/20 03:28:10;;;;;;;2.10;2.07;;;;;;;0.84;87.34;94991.75;4950527;28;20201;-71
2023/12/20 03:30:35;;;;;;;20.97;6.27;;;;;;;0.87;87.74;94981.88;4950491;28;20221;-71
2023/12/20 03:33:01;;;;;;;3.60;3.40;;;;;;;0.77;87.45;94982.94;4950548;28;20190;-71
2023/12/20 03:35:26;;;;;;;3.03;2.87;;;;;;;0.75;87.54;94980.50;4951144;28;20190;-71
2023/12/20 03:37:52;;;;;;;0.80;0.80;;;;;;;0.67;87.99;94970.88;4952400;28;20720;-71
2023/12/20 03:40:17;;;;;;;2.17;1.90;;;;;;;0.73;88.10;94975.47;4959084;28;20174;-70
2023/12/20 03:42:43;;;;;;;3.03;1.63;;;;;;;0.69;87.86;94979.28;4963136;28;20390;-70
2023/12/20 03:45:09;;;;;;;2.43;1.33;;;;;;;0.69;87.57;94975.91;4954379;28;20690;-70
2023/12/20 03:47:34;;;;;;;2.27;2.17;;;;;;;0.56;88.23;94962.50;4954454;28;20214;-70
2023/12/20 03:50:00;;;;;;;6.37;5.93;;;;;;;0.67;88.63;94970.06;4954162;28;20239;-70
2023/12/20 03:52:25;;;;;;;0.93;0.93;;;;;;;0.65;88.79;94982.34;4954313;28;20226;-71
2023/12/20 03:54:50;;;;;;;1.03;1.03;;;;;;;0.66;87.91;94974.44;4953977;28;20178;-71
2023/12/20 03:57:16;;;;;;;0.63;0.63;;;;;;;0.60;88.90;94971.63;4954212;28;20182;-70
2023/12/20 03:59:41;;;;;;;0.50;0.50;;;;;;;0.52;88.55;94976.72;4954152;28;20183;-70
2023/12/20 04:02:07;;;;;;;2.33;2.23;;;;;;;0.48;88.00;94970.19;4954088;28;20179;-70
2023/12/20 04:04:32;;;;;;;1.07;1.07;;;;;;;0.44;86.89;94971.44;4954193;28;20285;-71
2023/12/20 04:06:58;;;;;;;0.70;0.70;;;;;;;0.46;88.03;94966.94;4954317;28;20315;-71
2023/12/20 04:09:23;;;;;;;0.93;0.93;;;;;;;0.47;87.26;94955.63;4953770;28;20174;-71
2023/12/20 04:11:49;;;;;;;1.73;1.73;;;;;;;0.41;87.41;94961.38;4953362;28;20203;-71
2023/12/20 04:14:14;;;;;;;2.27;2.17;;;;;;;0.34;87.32;94951.63;4953451;28;20189;-71
2023/12/20 04:16:40;;;;;;;6.03;4.20;;;;;;;0.19;88.18;94936.72;4953701;28;20657;-71
2023/12/20 04:19:05;;;;;;;3.37;3.27;;;;;;;0.27;88.88;94941.97;4953760;28;20206;-71
2023/12/20 04:21:30;;;;;;;4.13;3.33;;;;;;;0.31;89.56;94944.13;4953610;28;20186;-71
2023/12/20 04:23:56;;;;;;;1.70;1.70;;;;;;;0.32;89.47;94939.78;4963838;28;20672;-72
2023/12/20 04:26:22;;;;;;;0.80;0.80;;;;;;;0.32;88.65;94940.59;4955153;28;20199;-72
2023/12/20 04:28:47;;;;;;;3.77;3.53;;;;;;;0.29;88.95;94942.66;4953740;28;20182;-73
2023/12/20 04:31:13;;;;;;;0.60;0.60;;;;;;;0.29;89.29;94946.06;4953654;28;20175;-70
2023/12/20 04:33:38;;;;;;;1.20;1.20;;;;;;;0.25;88.82;94931.78;4953568;28;20183;-70
2023/12/20 04:36:04;;;;;;;1.43;1.43;;;;;;;0.29;88.85;94930.53;4953376;29;20170;-69
2023/12/20 04:38:30;;;;;;;1.70;1.63;;;;;;;0.29;89.55;94934.88;4961053;28;20177;-69
2023/12/20 04:40:55;;;;;;;1.60;1.50;;;;;;;0.25;88.68;94924.03;4965104;28;20188;-70
2023/12/20 04:43:21;;;;;;;1.37;1.37;;;;;;;0.17;89.35;94921.34;4955655;28;20179;-70
2023/12/20 04:45:46;;;;;;;0.70;0.70;;;;;;;0.28;89.12;94920.31;4972568;28;20614;-70
2023/12/20 04:48:12;;;;;;;5.47;5.17;;;;;;;0.32;89.44;94934.59;4971653;28;20237;-71
2023/12/20 04:50:38;;;;;;;3.27;3.07;;;;;;;0.31;89.82;94925.22;4971837;28;20555;-72
2023/12/20 04:53:03;;;;;;;2.77;2.67;;;;;;;0.29;89.84;94925.34;4972271;28;20182;-71
2023/12/20 04:55:29;;;;;;;3.43;3.23;;;;;;;0.24;89.83;94912.03;4964172;28;20221;-71
2023/12/20 04:57:54;;;;;;;13.60;9.93;;;;;;;0.29;89.74;94912.41;4953150;28;20253;-72
2023/12/20 05:00:20;;;;;;;2.83;2.73;;;;;;;0.41;90.26;94922.56;4952944;28;20178;-72
2023/12/20 05:02:45;;;;;;;2.67;2.50;;;;;;;0.48;89.95;94923.59;4952973;28;20175;-71
2023/12/20 05:05:11;;;;;;;1.90;1.80;;;;;;;0.49;89.14;94926.03;4951630;28;20198;-72
2023/12/20 05:07:37;;;;;;;1.17;1.17;;;;;;;0.38;89.22;94903.75;4952889;28;20295;-72
2023/12/20 05:10:04;;;;;;;1.83;1.73;;;;;;;0.54;90.16;94920.41;4951946;28;20616;-69
2023/12/20 05:12:30;;;;;;;2.20;2.10;;;;;;;0.57;89.90;94910.56;4952794;28;20186;-70
2023/12/20 05:14:56;;;;;;;4.03;3.87;;;;;;;0.64;89.45;94915.97;4952779;28;20175;-70
2023/12/20 05:17:21;;;;;;;2.93;2.80;;;;;;;0.60;89.35;94923.22;4952769;28;20178;-71
2023/12/20 05:19:47;;;;;;;3.17;3.00;;;;;;;0.59;88.37;94910.44;4952969;28;20319;-71
2023/12/20 05:22:12;;;;;;;2.10;2.03;;;;;;;0.57;88.15;94907.97;4952769;28;20193;-71
2023/12/20 05:24:38;;;;;;;1.53;1.53;;;;;;;0.53;87.92;94906.63;4952652;28;20190;-71
2023/12/20 05:27:04;;;;;;;1.23;1.23;;;;;;;0.33;87.52;94879.28;4952544;28;20654;-71
2023/12/20 05:29:29;;;;;;;6.43;2.97;;;;;;;0.49;88.34;94900.16;4952500;28;20620;-69
2023/12/20 05:31:54;;;;;;;1.43;1.43;;;;;;;0.47;87.63;94901.25;4952500;28;20182;-71
2023/12/20 05:34:20;;;;;;;2.03;1.93;;;;;;;0.38;87.46;94898.59;4952503;28;20721;-70
2023/12/20 05:36:46;;;;;;;0.97;0.97;;;;;;;0.42;87.81;94895.72;4952254;28;20170;-70
2023/12/20 05:39:11;;;;;;;0.80;0.80;;;;;;;0.42;88.44;94900.88;4952433;28;20214;-70
2023/12/20 05:41:37;;;;;;;0.90;0.90;;;;;;;0.47;88.05;94901.25;4952222;28;20186;-71
2023/12/20 05:44:02;;;;;;;5.00;2.70;;;;;;;0.38;87.91;94892.59;4959509;28;20173;-71
2023/12/20 05:46:28;;;;;;;4.70;3.80;;;;;;;0.32;88.54;94883.66;4971477;28;20217;-70
2023/12/20 05:48:53;;;;;;;4.37;2.77;;;;;;;0.34;87.93;94889.50;4971123;28;20319;-71
2023/12/20 05:51:19;;;;;;;1.47;1.43;;;;;;;0.32;88.88;94894.00;4960446;28;20610;-71
2023/12/20 05:53:44;;;;;;;1.03;1.03;;;;;;;0.24;89.01;94888.75;4952032;28;20178;-69
2023/12/20 05:56:10;;;;;;;1.00;1.00;;;;;;;0.11;89.89;94865.00;4952296;28;20189;-70
2023/12/20 05:58:36;;;;;;;1.37;1.37;;;;;;;0.29;89.85;94883.13;4951134;28;20297;-70
2023/12/20 06:01:05;;;;;;;0.63;0.63;;;;;;;0.37;90.09;94878.84;4951730;28;20174;-70
2023/12/20 06:03:30;;;;;;;0.97;0.97;;;;;;;0.40;90.03;94877.72;4951979;28;20389;-71
2023/12/20 06:05:56;;;;;;;3.70;3.50;;;;;;;0.41;89.39;94878.53;4950727;28;20201;-70
2023/12/20 06:08:21;;;;;;;0.80;0.80;;;;;;;0.41;89.81;94881.13;4950705;28;20241;-70
2023/12/20 06:10:47;;;;;;;2.57;2.10;;;;;;;0.40;90.43;94874.31;4951145;28;20174;-70
2023/12/20 06:13:13;;;;;;;1.63;1.63;;;;;;;0.43;90.20;94884.41;4951180;28;20174;-70
2023/12/20 06:15:42;;;;;;;1.97;1.87;;;;;;;0.46;90.87;94878.91;4951684;28;20174;-70
2023/12/20 06:18:07;;;;;;;2.70;2.57;;;;;;;0.36;91.30;94856.50;4951561;28;20242;-70
2023/12/20 06:20:33;;;;;;;3.23;3.03;;;;;;;0.53;91.63;94891.09;4951638;28;20178;-70
2023/12/20 06:22:58;;;;;;;0.80;0.80;;;;;;;0.61;91.05;94892.94;4951951;28;20210;-70
2023/12/20 06:25:25;;;;;;;2.40;2.30;;;;;;;0.60;91.14;94884.38;4950886;28;20202;-71
2023/12/20 06:27:50;;;;;;;2.63;2.53;;;;;;;0.63;91.21;94884.06;4951483;28;20183;-71
2023/12/20 06:30:16;;;;;;;6.03;1.73;;;;;;;0.60;91.22;94878.38;4951494;28;20190;-70
2023/12/20 06:32:42;;;;;;;0.80;0.80;;;;;;;0.67;90.48;94877.63;4951533;28;20678;-71
2023/12/20 06:35:08;;;;;;;0.90;0.90;;;;;;;0.70;91.18;94881.69;4950278;28;20261;-71
2023/12/20 06:37:34;;;;;;;6.30;4.00;;;;;;;0.64;91.56;94872.75;4955482;28;20189;-70
2023/12/20 06:39:59;;;;;;;4.83;4.43;;;;;;;0.69;91.22;94875.69;4955751;28;20178;-70
2023/12/20 06:42:25;;;;;;;0.93;0.93;;;;;;;0.72;91.77;94872.81;4959535;28;20178;-71
2023/12/20 06:44:50;;;;;;;0.87;0.87;;;;;;;0.69;91.14;94870.50;4951435;28;20257;-71
2023/12/20 06:47:16;;;;;;;2.10;2.03;;;;;;;0.72;90.88;94870.22;4951280;28;20342;-71
2023/12/20 06:49:41;;;;;;;0.80;0.80;;;;;;;0.49;90.36;94842.38;4951431;28;20256;-70
2023/12/20 06:52:07;;;;;;;21.03;17.37;;;;;;;0.54;91.07;94869.44;4949808;28;20661;-71
2023/12/20 06:54:34;;;;;;;5.63;5.13;;;;;;;0.56;91.27;94859.75;4951211;28;20181;-70
2023/12/20 06:57:00;;;;;;;1.57;1.57;;;;;;;0.61;91.03;94857.50;4950968;28;20265;-70
2023/12/20 06:59:26;;;;;;;6.83;3.77;;;;;;;0.43;91.11;94832.63;4951271;28;20601;-70
2023/12/20 07:01:51;;;;;;;4.80;3.20;;;;;;;0.56;91.55;94851.97;4950715;28;20190;-70
2023/12/20 07:04:20;;;;;;;1.10;1.10;;;;;;;0.47;91.40;94845.09;4961481;28;20177;-70
2023/12/20 07:06:46;;;;;;;6.47;6.13;;;;;;;0.52;91.38;94847.25;4967817;28;20173;-71
2023/12/20 07:09:13;;;;;;;1.40;1.40;;;;;;;0.55;92.00;94846.94;4949783;28;20210;-70
2023/12/20 07:11:38;;;;;;;11.73;6.93;;;;;;;0.53;91.92;94848.84;4961885;28;20173;-70
2023/12/20 07:14:07;;;;;;;1.97;1.77;;;;;;;0.37;91.72;94849.53;4956317;28;20205;-70
2023/12/20 07:16:32;;;;;;;2.00;1.93;;;;;;;0.39;92.64;94845.03;4954837;28;20178;-70
2023/12/20 07:18:57;;;;;;;5.93;5.53;;;;;;;0.46;92.82;94835.69;4954670;28;20201;-70
2023/12/20 07:21:23;;;;;;;3.37;2.70;;;;;;;0.58;91.72;94842.28;4954293;28;20182;-70
2023/12/20 07:23:48;;;;;;;5.63;5.20;;;;;;;0.66;91.66;94841.53;4954254;28;20182;-71
2023/12/20 07:26:15;;;;;;;1.20;1.20;;;;;;;0.75;91.77;94836.25;4954634;28;20197;-71
2023/12/20 07:28:41;;;;;;;2.50;2.40;;;;;;;0.81;90.78;94834.81;4954549;28;20189;-71
2023/12/20 07:31:06;;;;;;;8.33;7.70;;;;;;;0.85;91.66;94830.97;4954478;28;20564;-71
2023/12/20 07:33:31;;;;;;;10.20;7.63;;;;;;;0.99;91.25;94827.81;4958529;28;20252;-70
2023/12/20 07:35:59;;;;;;;13.67;10.30;;;;;;;1.07;90.57;94827.88;4973832;28;20173;-70
2023/12/20 07:38:25;;;;;;;7.67;7.17;;;;;;;1.12;90.14;94835.19;4973598;28;20693;-70
2023/12/20 07:40:50;;;;;;;2.30;2.20;;;;;;;1.16;90.06;94838.28;4963455;28;20274;-70
2023/12/20 07:43:16;;;;;;;4.33;4.03;;;;;;;1.17;90.49;94824.34;4954485;28;20689;-70
2023/12/20 07:45:41;;;;;;;11.10;5.73;;;;;;;1.26;90.48;94821.66;4954412;28;20264;-71
2023/12/20 07:48:07;;;;;;;3.80;3.60;;;;;;;1.35;90.60;94830.28;4954175;28;20714;-71
2023/12/20 07:50:32;;;;;;;0.93;0.93;;;;;;;1.28;90.44;94800.75;4952921;28;20976;-70
2023/12/20 07:53:00;;;;;;;1.80;1.70;;;;;;;1.51;90.47;94825.16;4954172;28;20285;-70
2023/12/20 07:55:26;;;;;;;7.07;6.60;;;;;;;1.35;89.20;94802.56;4954221;28;20194;-70
2023/12/20 07:57:51;;;;;;;2.57;2.47;;;;;;;1.48;88.68;94821.09;4954064;28;20217;-70
2023/12/20 08:00:17;;;;;;;0.83;0.83;;;;;;;1.53;88.04;94828.41;4953577;28;20182;-71
2023/12/20 08:02:43;;;;;;;1.07;1.07;;;;;;;1.57;87.99;94823.72;4953909;28;20183;-70
2023/12/20 08:05:09;;;;;;;4.67;3.50;;;;;;;1.61;88.35;94828.44;4953991;28;20207;-70
2023/12/20 08:07:34;;;;;;;4.70;4.30;;;;;;;1.70;87.68;94821.50;4954065;28;20186;-70
2023/12/20 08:10:00;;;;;;;2.40;1.77;;;;;;;1.79;87.78;94823.97;4954201;28;20202;-70
2023/12/20 08:12:27;;;;;;;1.00;1.00;;;;;;;1.78;86.98;94824.13;4953813;28;20193;-70
2023/12/20 08:14:53;;;;;;;1.27;1.27;;;;;;;1.70;86.23;94811.94;4953978;28;20167;-70
2023/12/20 08:17:19;;;;;;;1.33;1.33;;;;;;;1.73;86.29;94813.41;4952345;28;20189;-70
2023/12/20 08:19:44;;;;;;;3.20;2.90;;;;;;;1.86;86.56;94804.19;4953574;28;20185;-70
2023/12/20 08:22:10;;;;;;;0.60;0.60;;;;;;;2.46;87.85;94805.72;4953226;28;20340;-70
2023/12/20 08:24:35;;;;;;;5.53;5.20;;;;;;;3.11;84.83;94806.47;4953049;28;20206;-70
2023/12/20 08:27:01;;;;;;;0.93;0.93;;;;;;;3.82;82.41;94796.91;4953426;28;20182;-71
2023/12/20 08:29:26;;;;;;;3.27;3.07;;;;;;;4.44;78.22;94805.47;4953448;28;20210;-71
2023/12/20 08:31:54;;;;;;;7.10;4.30;;;;;;;4.67;77.51;94797.66;4953041;28;20182;-70
2023/12/20 08:34:19;;;;;;;29.73;14.83;;;;;;;4.51;75.85;94803.78;4953563;28;20233;-71
2023/12/20 08:36:44;;;;;;;0.60;0.60;;;;;;;4.26;76.33;94797.13;4952358;28;20174;-71
2023/12/20 08:39:10;;;;;;;1.93;1.80;;;;;;;3.96;77.03;94773.56;4952259;28;20540;-70
2023/12/20 08:41:36;;;;;;;1.23;1.23;;;;;;;3.90;77.79;94784.66;4953438;28;20206;-71
2023/12/20 08:44:02;;;;;;;2.27;2.17;;;;;;;3.72;78.76;94777.09;4954582;28;20163;-71
2023/12/20 08:46:27;;;;;;;2.20;2.10;;;;;;;3.77;79.32;94782.63;4953298;28;20780;-71
2023/12/20 08:48:53;;;;;;;1.90;1.70;;;;;;;3.68;79.84;94783.63;4952311;28;20218;-69
2023/12/20 08:51:19;;;;;;;1.53;1.43;;;;;;;3.68;80.00;94775.84;4950352;28;20182;-70
2023/12/20 08:53:46;;;;;;;1.00;1.00;;;;;;;3.72;80.35;94778.88;4954047;28;20265;-71
2023/12/20 08:56:12;;;;;;;3.03;2.60;;;;;;;3.61;79.95;94769.69;4962974;28;20613;-71
2023/12/20 08:58:37;;;;;;;1.33;1.33;;;;;;;3.63;80.82;94774.72;4957468;28;20273;-71
2023/12/20 09:01:03;;;;;;;0.87;0.87;;;;;;;3.62;80.93;94760.91;4967793;28;20176;-70
2023/12/20 09:03:28;;;;;;;3.53;3.23;;;;;;;3.52;80.70;94733.47;4957014;28;20182;-70
2023/12/20 09:05:53;;;;;;;0.60;0.60;;;;;;;3.61;81.27;94742.84;4962076;28;20203;-70
2023/12/20 09:08:19;;;;;;;42.67;38.07;;;;;;;3.57;82.07;94739.78;4963983;28;20241;-70
2023/12/20 09:10:45;;;;;;;0.73;0.73;;;;;;;3.49;82.12;94729.41;4956436;28;20177;-70
2023/12/20 09:13:10;;;;;;;1.37;1.37;;;;;;;3.45;82.54;94730.75;4967038;28;20200;-71
2023/12/20 09:15:36;;;;;;;1.83;1.80;;;;;;;3.38;82.75;94720.19;4951525;28;20189;-70
2023/12/20 09:18:01;;;;;;;1.50;1.50;;;;;;;3.30;83.33;94707.22;4952139;28;20187;-70
2023/12/20 09:20:28;;;;;;;5.70;5.40;;;;;;;3.33;84.03;94701.69;4952864;28;20213;-71
2023/12/20 09:22:53;;;;;;;7.90;7.23;;;;;;;3.42;84.17;94687.66;4951553;28;20179;-70
2023/12/20 09:25:19;;;;;;;2.73;2.63;;;;;;;3.46;84.12;94690.72;4951219;28;20186;-69
2023/12/20 09:27:44;;;;;;;4.27;3.43;;;;;;;3.52;84.24;94687.44;4951434;28;20650;-69
2023/12/20 09:30:10;;;;;;;24.07;7.47;;;;;;;3.54;83.89;94664.69;4950600;28;20229;-69
2023/12/20 09:32:35;;;;;;;3.30;3.20;;;;;;;3.67;83.22;94677.09;4952338;28;20210;-69
2023/12/20 09:35:02;;;;;;;3.03;2.93;;;;;;;3.73;84.08;94676.41;4953630;28;20277;-69
2023/12/20 09:37:28;;;;;;;9.70;6.63;;;;;;;3.83;83.97;94669.19;4964157;28;20167;-70
2023/12/20 09:39:54;;;;;;;6.90;5.97;;;;;;;3.80;83.85;94640.91;4953546;28;20178;-70
2023/12/20 09:42:29;;;;;;;11.17;3.83;;;;;;;3.86;83.48;94623.78;4951430;28;20178;-69
2023/12/20 09:44:57;;;;;;;2.97;2.87;;;;;;;4.02;83.36;94647.88;4951462;28;20333;-70
2023/12/20 09:47:24;;;;;;;2.07;1.97;;;;;;;4.14;83.85;94649.09;4950817;28;20221;-70
2023/12/20 09:49:51;;;;;;;0.70;0.70;;;;;;;4.29;83.89;94646.50;4952393;28;20662;-70
2023/12/20 09:52:18;;;;;;;5.17;4.73;;;;;;;4.40;83.15;94645.25;4952004;28;20194;-70
2023/12/20 09:54:45;;;;;;;1.33;1.33;;;;;;;4.41;81.55;94633.84;4951745;28;20666;-70
2023/12/20 09:57:10;;;;;;;2.23;2.10;;;;;;;4.50;81.86;94633.56;4951630;28;20217;-70
2023/12/20 09:59:36;;;;;;;7.30;6.63;;;;;;;4.60;82.56;94640.31;4951318;28;20194;-70
2023/12/20 10:02:03;;;;;;;14.13;8.10;;;;;;;4.68;82.55;94620.19;4949842;28;20186;-70
2023/12/20 10:04:31;;;;;;;5.60;5.30;;;;;;;4.94;81.83;94628.34;4950980;28;20820;-71
2023/12/20 10:07:03;;;;;;;0.87;0.87;;;;;;;5.19;81.44;94622.84;4951038;28;20185;-70
2023/12/20 10:09:32;;;;;;;9.03;8.43;;;;;;;5.44;80.56;94631.94;4951465;28;20265;-70
2023/12/20 10:11:58;;;;;;;6.33;4.30;;;;;;;5.59;79.47;94624.88;4951868;28;20187;-70
2023/12/20 10:14:24;;;;;;;10.13;8.47;;;;;;;5.67;79.23;94598.63;4951541;28;20188;-70
2023/12/20 10:16:50;;;;;;;5.97;5.40;;;;;;;5.96;78.55;94610.78;4950643;28;20190;-70
2023/12/20 10:19:19;;;;;;;11.17;10.23;;;;;;;6.05;78.12;94606.22;4951552;28;20182;-70
2023/12/20 10:21:45;;;;;;;5.50;5.10;;;;;;;5.99;78.15;94594.72;4951964;28;20211;-70
2023/12/20 10:24:17;;;;;;;3.57;3.37;;;;;;;6.07;76.85;94591.97;4952061;28;20175;-70
2023/12/20 10:26:42;;;;;;;4.93;4.60;;;;;;;6.12;77.41;94588.78;4951867;28;20650;-69
2023/12/20 10:29:08;;;;;;;2.80;2.60;;;;;;;6.14;76.86;94586.00;4951850;28;20181;-70
2023/12/20 10:31:34;;;;;;;1.60;1.60;;;;;;;5.90;76.73;94581.97;4951666;28;20197;-70
2023/12/20 10:34:01;;;;;;;2.63;2.53;;;;;;;5.80;76.66;94590.09;4951895;28;20777;-69
2023/12/20 10:36:29;;;;;;;7.43;6.73;;;;;;;5.78;77.43;94570.41;4951592;28;20181;-69
2023/12/20 10:38:57;;;;;;;19.43;9.00;;;;;;;5.86;77.66;94567.66;4951734;28;20668;-69
2023/12/20 10:41:31;;;;;;;11.00;4.93;;;;;;;5.78;76.74;94547.72;4951800;28;20750;-70
2023/12/20 10:44:01;;;;;;;1.63;1.53;;;;;;;5.89;77.28;94554.22;4950866;28;20171;-69
2023/12/20 10:46:30;;;;;;;2.00;1.90;;;;;;;5.83;77.03;94549.75;4951299;28;20218;-69
2023/12/20 10:48:57;;;;;;;1.33;1.27;;;;;;;5.57;77.52;94545.13;4950717;28;20219;-69
2023/12/20 10:51:24;;;;;;;5.90;5.60;;;;;;;5.42;77.90;94539.97;4950826;28;20557;-70
2023/12/20 10:53:50;;;;;;;6.63;6.23;;;;;;;5.28;77.91;94541.63;4950714;28;20166;-70
2023/12/20 10:56:21;;;;;;;23.03;17.27;;;;;;;5.15;78.98;94545.91;4949441;28;20166;-69
2023/12/20 10:58:49;;;;;;;1.23;1.23;;;;;;;4.93;79.34;94519.78;4949642;28;20680;-69
2023/12/20 11:01:16;;;;;;;3.73;3.53;;;;;;;5.02;79.55;94527.50;4951334;28;20747;-69
2023/12/20 11:03:52;;;;;;;2.40;2.30;;;;;;;5.03;79.60;94521.31;4949836;28;20186;-70
2023/12/20 11:06:42;;;;;;;3.37;3.17;;;;;;;4.91;79.76;94534.03;4951336;28;20202;-69
2023/12/20 11:09:24;;;;;;;0.50;0.50;;;;;;;4.80;80.19;94511.03;4951375;28;20162;-69
2023/12/20 11:11:59;;;;;;;2.70;2.60;;;;;;;4.75;80.68;94509.00;4951464;28;20182;-69
2023/12/20 11:14:41;;;;;;;3.47;3.27;;;;;;;4.71;81.34;94504.31;4951330;28;20301;-70
2023/12/20 11:17:14;;;;;;;5.80;5.30;;;;;;;4.78;82.37;94508.59;4950457;28;20178;-70
2023/12/20 11:19:58;;;;;;;7.07;6.63;;;;;;;4.87;82.69;94504.09;4950306;28;20654;-70
2023/12/20 11:22:29;;;;;;;2.80;1.67;;;;;;;4.96;83.14;94481.31;4949902;28;20174;-70
2023/12/20 11:24:59;;;;;;;4.47;3.60;;;;;;;5.07;83.32;94480.81;4948091;28;20197;-70
2023/12/20 11:27:24;;;;;;;1.90;1.83;;;;;;;5.12;83.41;94474.03;4948840;28;20725;-70
2023/12/20 11:29:56;;;;;;;3.70;3.40;;;;;;;5.29;82.52;94464.16;4962189;28;20166;-70
2023/12/20 11:32:27;;;;;;;7.87;7.10;;;;;;;5.35;81.16;94465.22;4953981;28;20278;-70
2023/12/20 11:34:56;;;;;;;2.67;2.50;;;;;;;5.39;80.53;94456.81;4951100;28;20245;-70
2023/12/20 11:37:22;;;;;;;5.67;5.20;;;;;;;5.45;80.19;94440.41;4951366;28;20178;-70